createdAt,value
2019-05-20T00:00:30.436Z,15.75
2019-05-20T00:01:30.423Z,15.83
2019-05-20T00:02:30.415Z,15.76
2019-05-20T00:03:30.406Z,15.75
2019-05-20T00:04:30.389Z,15.74
2019-05-20T00:05:30.407Z,15.72
2019-05-20T00:06:30.367Z,15.72
2019-05-20T00:07:30.362Z,15.76
2019-05-20T00:08:30.348Z,15.69
2019-05-20T00:09:30.337Z,15.67
2019-05-20T00:10:30.336Z,15.60
2019-05-20T00:11:30.315Z,15.59
2019-05-20T00:12:30.302Z,15.53
2019-05-20T00:13:30.294Z,15.56
2019-05-20T00:14:30.281Z,15.43
2019-05-20T00:15:30.272Z,15.39
2019-05-20T00:16:30.261Z,15.41
2019-05-20T00:17:30.250Z,15.43
2019-05-20T00:18:30.240Z,15.35
2019-05-20T00:19:30.228Z,15.31
2019-05-20T00:20:30.213Z,15.28
2019-05-20T00:21:30.203Z,15.19
2019-05-20T00:22:30.196Z,15.25
2019-05-20T00:23:30.182Z,15.34
2019-05-20T00:24:30.176Z,15.35
2019-05-20T00:25:30.161Z,15.34
2019-05-20T00:26:30.149Z,15.34
2019-05-20T00:27:30.137Z,15.31
2019-05-20T00:28:30.137Z,15.44
2019-05-20T00:29:30.116Z,15.34
2019-05-20T00:30:30.108Z,15.35
2019-05-20T00:31:30.097Z,15.31
2019-05-20T00:32:40.596Z,15.41
2019-05-20T00:33:31.082Z,15.38
2019-05-20T00:34:35.000Z,15.29
2019-05-20T00:35:31.052Z,15.35
2019-05-20T00:36:30.044Z,15.31
2019-05-20T00:37:30.039Z,15.32
2019-05-20T00:38:30.026Z,15.32
2019-05-20T00:39:30.012Z,15.31
2019-05-20T00:40:30.029Z,15.34
2019-05-20T00:41:29.985Z,15.34
2019-05-20T00:42:29.976Z,15.47
2019-05-20T00:43:29.982Z,15.41
2019-05-20T00:44:29.950Z,15.38
2019-05-20T00:45:29.946Z,15.41
2019-05-20T00:46:29.941Z,15.34
2019-05-20T00:47:29.918Z,15.34
2019-05-20T00:48:29.909Z,15.25
2019-05-20T00:49:29.896Z,15.20
2019-05-20T00:50:29.892Z,15.25
2019-05-20T00:51:29.880Z,15.20
2019-05-20T00:52:29.865Z,15.20
2019-05-20T00:53:29.853Z,15.13
2019-05-20T00:54:29.843Z,15.14
2019-05-20T00:55:29.836Z,15.14
2019-05-20T00:56:29.822Z,15.11
2019-05-20T00:57:29.835Z,15.10
2019-05-20T00:58:29.805Z,15.10
2019-05-20T00:59:29.793Z,15.06
2019-05-20T01:00:29.780Z,15.06
2019-05-20T01:01:29.770Z,14.95
2019-05-20T01:02:29.763Z,14.98
2019-05-20T01:03:29.753Z,15.02
2019-05-20T01:04:29.753Z,15.10
2019-05-20T01:05:29.724Z,15.10
2019-05-20T01:06:29.718Z,15.11
2019-05-20T01:07:29.701Z,15.02
2019-05-20T01:08:29.692Z,15.06
2019-05-20T01:09:29.680Z,15.19
2019-05-20T01:10:29.704Z,15.14
2019-05-20T01:11:29.663Z,15.13
2019-05-20T01:12:29.647Z,15.14
2019-05-20T01:13:29.634Z,15.20
2019-05-20T01:14:29.627Z,15.19
2019-05-20T01:15:29.617Z,15.19
2019-05-20T01:16:29.603Z,15.09
2019-05-20T01:17:29.591Z,15.09
2019-05-20T01:18:29.583Z,15.17
2019-05-20T01:19:29.566Z,15.16
2019-05-20T01:20:29.558Z,15.16
2019-05-20T01:21:29.547Z,15.20
2019-05-20T01:22:29.535Z,15.25
2019-05-20T01:23:29.530Z,15.27
2019-05-20T01:24:29.566Z,15.27
2019-05-20T01:25:29.510Z,15.29
2019-05-20T01:26:29.495Z,15.41
2019-05-20T01:27:29.517Z,15.43
2019-05-20T01:28:29.472Z,15.36
2019-05-20T01:29:29.457Z,15.34
2019-05-20T01:30:29.446Z,15.34
2019-05-20T01:31:29.446Z,15.35
2019-05-20T01:32:29.439Z,15.31
2019-05-20T01:33:29.421Z,15.27
2019-05-20T01:34:29.409Z,15.27
2019-05-20T01:35:29.402Z,15.29
2019-05-20T01:36:29.391Z,15.19
2019-05-20T01:37:29.374Z,15.25
2019-05-20T01:38:29.364Z,15.27
2019-05-20T01:39:29.474Z,15.23
2019-05-20T01:40:29.339Z,15.16
2019-05-20T01:41:29.329Z,15.25
2019-05-20T01:42:29.321Z,15.25
2019-05-20T01:43:29.308Z,15.14
2019-05-20T01:44:29.299Z,15.07
2019-05-20T01:45:29.324Z,15.20
2019-05-20T01:46:29.274Z,15.19
2019-05-20T01:47:29.267Z,15.09
2019-05-20T01:48:29.259Z,15.11
2019-05-20T01:49:29.250Z,15.11
2019-05-20T01:50:29.235Z,15.03
2019-05-20T01:51:29.236Z,15.09
2019-05-20T01:52:29.216Z,15.09
2019-05-20T01:53:29.207Z,15.10
2019-05-20T01:54:29.193Z,15.10
2019-05-20T01:55:29.175Z,14.99
2019-05-20T01:56:29.168Z,14.92
2019-05-20T01:57:29.160Z,14.94
2019-05-20T01:58:29.148Z,14.91
2019-05-20T01:59:29.135Z,14.94
2019-05-20T02:00:29.124Z,14.83
2019-05-20T02:01:29.112Z,14.81
2019-05-20T02:02:29.104Z,14.80
2019-05-20T02:03:32.134Z,14.92
2019-05-20T02:04:29.082Z,14.92
2019-05-20T02:05:29.074Z,14.92
2019-05-20T02:06:29.056Z,14.91
2019-05-20T02:07:29.048Z,14.78
2019-05-20T02:08:29.040Z,14.83
2019-05-20T02:09:29.026Z,14.81
2019-05-20T02:10:29.013Z,14.94
2019-05-20T02:11:29.006Z,14.95
2019-05-20T02:12:28.995Z,14.96
2019-05-20T02:13:28.982Z,14.98
2019-05-20T02:14:28.976Z,14.99
2019-05-20T02:15:28.969Z,14.92
2019-05-20T02:16:28.949Z,14.94
2019-05-20T02:17:28.945Z,14.91
2019-05-20T02:18:28.943Z,14.81
2019-05-20T02:19:28.924Z,14.84
2019-05-20T02:20:28.910Z,14.94
2019-05-20T02:21:28.903Z,14.92
2019-05-20T02:22:28.886Z,14.94
2019-05-20T02:23:28.872Z,14.83
2019-05-20T02:24:28.860Z,14.86
2019-05-20T02:25:28.863Z,14.83
2019-05-20T02:26:28.841Z,14.89
2019-05-20T02:27:28.828Z,14.94
2019-05-20T02:28:28.824Z,14.95
2019-05-20T02:29:28.833Z,14.99
2019-05-20T02:30:28.803Z,14.94
2019-05-20T02:31:28.794Z,15.01
2019-05-20T02:32:28.796Z,15.01
2019-05-20T02:33:28.768Z,15.09
2019-05-20T02:34:28.755Z,15.07
2019-05-20T02:35:28.744Z,15.03
2019-05-20T02:36:28.740Z,15.06
2019-05-20T02:37:28.722Z,15.07
2019-05-20T02:38:28.712Z,15.09
2019-05-20T02:39:28.703Z,15.06
2019-05-20T02:40:28.688Z,15.10
2019-05-20T02:41:28.679Z,14.92
2019-05-20T02:42:28.667Z,15.02
2019-05-20T02:43:28.658Z,14.95
2019-05-20T02:44:28.648Z,14.92
2019-05-20T02:45:28.635Z,14.92
2019-05-20T02:46:28.627Z,14.92
2019-05-20T02:47:28.624Z,14.92
2019-05-20T02:48:28.602Z,14.88
2019-05-20T02:49:28.589Z,14.86
2019-05-20T02:50:28.581Z,14.81
2019-05-20T02:51:28.573Z,14.88
2019-05-20T02:52:28.559Z,14.84
2019-05-20T02:53:28.542Z,14.80
2019-05-20T02:54:28.534Z,14.78
2019-05-20T02:55:28.529Z,14.86
2019-05-20T02:56:28.522Z,14.81
2019-05-20T02:57:28.504Z,14.78
2019-05-20T02:58:28.490Z,14.77
2019-05-20T02:59:28.477Z,14.75
2019-05-20T03:00:28.470Z,14.69
2019-05-20T03:01:28.458Z,14.70
2019-05-20T03:02:28.449Z,14.70
2019-05-20T03:03:28.438Z,14.68
2019-05-20T03:04:28.428Z,14.75
2019-05-20T03:05:28.419Z,14.73
2019-05-20T03:06:28.405Z,14.70
2019-05-20T03:07:28.397Z,14.75
2019-05-20T03:08:28.388Z,14.69
2019-05-20T03:09:28.371Z,14.70
2019-05-20T03:10:28.372Z,14.78
2019-05-20T03:11:28.353Z,14.75
2019-05-20T03:12:28.346Z,14.72
2019-05-20T03:13:28.333Z,14.64
2019-05-20T03:14:28.320Z,14.69
2019-05-20T03:15:28.310Z,14.69
2019-05-20T03:16:28.298Z,14.68
2019-05-20T03:17:28.294Z,14.75
2019-05-20T03:18:28.307Z,14.73
2019-05-20T03:19:28.269Z,14.72
2019-05-20T03:20:28.253Z,14.72
2019-05-20T03:21:28.246Z,14.70
2019-05-20T03:22:28.228Z,14.77
2019-05-20T03:23:28.222Z,14.78
2019-05-20T03:24:28.209Z,14.81
2019-05-20T03:25:28.200Z,14.83
2019-05-20T03:26:28.192Z,14.83
2019-05-20T03:27:28.178Z,14.81
2019-05-20T03:28:28.164Z,14.80
2019-05-20T03:29:28.156Z,14.84
2019-05-20T03:30:28.144Z,14.81
2019-05-20T03:31:28.140Z,14.84
2019-05-20T03:32:28.125Z,14.89
2019-05-20T03:33:28.127Z,14.88
2019-05-20T03:34:45.715Z,14.81
2019-05-20T03:35:29.113Z,14.80
2019-05-20T03:36:28.079Z,14.92
2019-05-20T03:37:28.068Z,14.94
2019-05-20T03:38:28.054Z,14.92
2019-05-20T03:39:28.052Z,14.99
2019-05-20T03:40:28.042Z,14.98
2019-05-20T03:41:28.030Z,14.96
2019-05-20T03:42:28.021Z,14.94
2019-05-20T03:43:28.004Z,14.89
2019-05-20T03:44:27.988Z,14.95
2019-05-20T03:45:27.975Z,14.96
2019-05-20T03:46:27.968Z,14.96
2019-05-20T03:47:27.965Z,15.06
2019-05-20T03:48:27.949Z,15.03
2019-05-20T03:49:27.944Z,15.06
2019-05-20T03:50:27.928Z,14.94
2019-05-20T03:51:27.917Z,15.06
2019-05-20T03:52:27.903Z,14.95
2019-05-20T03:53:27.921Z,15.07
2019-05-20T03:54:27.886Z,15.01
2019-05-20T03:55:27.874Z,15.03
2019-05-20T03:56:27.861Z,15.01
2019-05-20T03:57:27.852Z,15.09
2019-05-20T03:58:27.836Z,15.14
2019-05-20T03:59:27.850Z,15.13
2019-05-20T04:00:27.825Z,15.21
2019-05-20T04:01:27.809Z,15.09
2019-05-20T04:02:27.801Z,15.13
2019-05-20T04:03:27.784Z,15.19
2019-05-20T04:04:27.775Z,15.17
2019-05-20T04:05:27.766Z,15.17
2019-05-20T04:06:27.758Z,15.28
2019-05-20T04:07:27.739Z,15.21
2019-05-20T04:08:27.729Z,15.19
2019-05-20T04:09:27.719Z,15.27
2019-05-20T04:10:27.709Z,15.28
2019-05-20T04:11:27.704Z,15.28
2019-05-20T04:12:27.684Z,15.31
2019-05-20T04:13:27.685Z,15.32
2019-05-20T04:14:27.669Z,15.34
2019-05-20T04:15:27.653Z,15.28
2019-05-20T04:16:27.648Z,15.29
2019-05-20T04:17:27.641Z,15.41
2019-05-20T04:18:27.622Z,15.39
2019-05-20T04:19:27.613Z,15.39
2019-05-20T04:20:27.599Z,15.44
2019-05-20T04:21:27.602Z,15.41
2019-05-20T04:22:27.587Z,15.50
2019-05-20T04:23:27.567Z,15.47
2019-05-20T04:24:27.556Z,15.43
2019-05-20T04:25:27.545Z,15.49
2019-05-20T04:26:27.537Z,15.50
2019-05-20T04:27:27.521Z,15.47
2019-05-20T04:28:27.514Z,15.57
2019-05-20T04:29:27.511Z,15.57
2019-05-20T04:30:27.489Z,15.65
2019-05-20T04:31:27.478Z,15.54
2019-05-20T04:32:27.468Z,15.67
2019-05-20T04:33:27.456Z,15.53
2019-05-20T04:34:27.446Z,15.59
2019-05-20T04:35:27.440Z,15.68
2019-05-20T04:36:27.429Z,15.60
2019-05-20T04:37:27.415Z,15.64
2019-05-20T04:38:27.402Z,15.68
2019-05-20T04:39:27.394Z,15.65
2019-05-20T04:40:27.377Z,15.56
2019-05-20T04:41:27.379Z,15.62
2019-05-20T04:42:27.361Z,15.59
2019-05-20T04:43:27.344Z,15.62
2019-05-20T04:44:27.337Z,15.64
2019-05-20T04:45:27.342Z,15.64
2019-05-20T04:46:27.313Z,15.64
2019-05-20T04:47:27.311Z,15.78
2019-05-20T04:48:27.296Z,15.72
2019-05-20T04:49:27.285Z,15.78
2019-05-20T04:50:27.270Z,15.83
2019-05-20T04:51:27.273Z,15.89
2019-05-20T04:52:27.264Z,15.84
2019-05-20T04:53:27.239Z,15.82
2019-05-20T04:54:27.234Z,15.84
2019-05-20T04:55:27.219Z,15.83
2019-05-20T04:56:29.322Z,15.78
2019-05-20T04:57:27.195Z,15.84
2019-05-20T04:58:27.184Z,15.89
2019-05-20T04:59:27.196Z,15.97
2019-05-20T05:00:27.171Z,16.05
2019-05-20T05:01:27.150Z,16.08
2019-05-20T05:02:27.138Z,16.00
2019-05-20T05:03:27.129Z,16.08
2019-05-20T05:04:27.123Z,16.20
2019-05-20T05:05:37.068Z,16.15
2019-05-20T05:06:28.101Z,16.25
2019-05-20T05:07:27.088Z,16.21
2019-05-20T05:08:27.079Z,16.25
2019-05-20T05:09:27.060Z,16.38
2019-05-20T05:10:27.053Z,16.38
2019-05-20T05:11:27.043Z,16.48
2019-05-20T05:12:27.038Z,16.61
2019-05-20T05:13:27.027Z,16.67
2019-05-20T05:14:27.102Z,16.82
2019-05-20T05:15:27.163Z,16.85
2019-05-20T05:16:27.069Z,16.89
2019-05-20T05:17:27.028Z,16.98
2019-05-20T05:18:27.131Z,16.85
2019-05-20T05:19:27.045Z,16.79
2019-05-20T05:20:26.942Z,17.00
2019-05-20T05:21:26.936Z,17.06
2019-05-20T05:22:26.921Z,17.14
2019-05-20T05:23:26.913Z,17.25
2019-05-20T05:24:26.898Z,17.15
2019-05-20T05:25:26.890Z,17.16
2019-05-20T05:26:26.879Z,17.08
2019-05-20T05:27:26.865Z,16.97
2019-05-20T05:28:26.859Z,16.97
2019-05-20T05:29:26.848Z,16.97
2019-05-20T05:30:26.838Z,16.96
2019-05-20T05:31:26.820Z,16.83
2019-05-20T05:32:26.817Z,16.81
2019-05-20T05:33:26.805Z,16.94
2019-05-20T05:34:26.794Z,16.97
2019-05-20T05:35:26.782Z,17.07
2019-05-20T05:36:26.770Z,17.01
2019-05-20T05:37:26.766Z,17.21
2019-05-20T05:38:26.745Z,17.18
2019-05-20T05:39:26.758Z,17.44
2019-05-20T05:40:26.724Z,17.51
2019-05-20T05:41:26.718Z,17.71
2019-05-20T05:42:26.704Z,17.81
2019-05-20T05:43:26.701Z,17.84
2019-05-20T05:44:26.691Z,17.84
2019-05-20T05:45:29.160Z,17.72
2019-05-20T05:46:26.690Z,17.82
2019-05-20T05:47:26.658Z,17.84
2019-05-20T05:48:26.643Z,17.89
2019-05-20T05:49:26.641Z,17.84
2019-05-20T05:50:26.612Z,17.79
2019-05-20T05:51:26.609Z,17.74
2019-05-20T05:52:26.598Z,17.71
2019-05-20T05:53:26.581Z,17.68
2019-05-20T05:54:26.578Z,17.74
2019-05-20T05:55:26.563Z,17.87
2019-05-20T05:56:26.548Z,18.08
2019-05-20T05:57:26.541Z,18.15
2019-05-20T05:58:26.530Z,18.18
2019-05-20T05:59:26.516Z,18.03
2019-05-20T06:00:26.795Z,18.11
2019-05-20T06:01:26.536Z,18.08
2019-05-20T06:02:26.496Z,18.36
2019-05-20T06:03:26.489Z,18.55
2019-05-20T06:04:26.467Z,18.73
2019-05-20T06:05:26.453Z,19.04
2019-05-20T06:06:26.439Z,19.36
2019-05-20T06:07:26.425Z,19.73
2019-05-20T06:08:26.418Z,19.99
2019-05-20T06:09:26.404Z,20.06
2019-05-20T06:10:26.409Z,20.10
2019-05-20T06:11:26.383Z,20.06
2019-05-20T06:12:26.379Z,20.26
2019-05-20T06:13:26.361Z,20.23
2019-05-20T06:14:26.352Z,20.43
2019-05-20T06:15:26.341Z,20.72
2019-05-20T06:16:35.895Z,20.69
2019-05-20T06:17:27.328Z,20.55
2019-05-20T06:18:26.331Z,20.54
2019-05-20T06:19:26.318Z,20.74
2019-05-20T06:20:26.287Z,20.98
2019-05-20T06:21:26.278Z,21.25
2019-05-20T06:22:26.268Z,21.17
2019-05-20T06:23:26.255Z,21.37
2019-05-20T06:24:26.242Z,21.53
2019-05-20T06:25:26.233Z,21.71
2019-05-20T06:26:26.223Z,21.69
2019-05-20T06:27:26.210Z,21.64
2019-05-20T06:28:26.209Z,21.90
2019-05-20T06:29:26.198Z,21.99
2019-05-20T06:30:26.178Z,21.82
2019-05-20T06:31:26.168Z,22.00
2019-05-20T06:32:26.170Z,21.98
2019-05-20T06:33:26.147Z,21.75
2019-05-20T06:34:26.137Z,21.49
2019-05-20T06:35:26.129Z,21.75
2019-05-20T06:36:27.299Z,21.69
2019-05-20T06:37:26.102Z,21.74
2019-05-20T06:38:26.091Z,21.72
2019-05-20T06:39:26.084Z,21.91
2019-05-20T06:40:26.152Z,21.94
2019-05-20T06:41:26.057Z,21.86
2019-05-20T06:42:26.069Z,21.84
2019-05-20T06:43:26.062Z,21.72
2019-05-20T06:44:26.029Z,21.72
2019-05-20T06:45:26.016Z,21.98
2019-05-20T06:46:26.006Z,21.82
2019-05-20T06:47:26.028Z,21.88
2019-05-20T06:48:25.982Z,21.91
2019-05-20T06:49:25.973Z,21.62
2019-05-20T06:50:29.494Z,21.53
2019-05-20T06:51:25.951Z,21.52
2019-05-20T06:52:35.480Z,21.62
2019-05-20T06:53:26.968Z,21.74
2019-05-20T06:54:25.916Z,22.02
2019-05-20T06:55:25.909Z,22.15
2019-05-20T06:56:25.901Z,22.30
2019-05-20T06:57:25.937Z,22.40
2019-05-20T06:58:25.963Z,22.60
2019-05-20T06:59:25.861Z,22.91
2019-05-20T07:00:25.885Z,22.92
2019-05-20T07:01:25.857Z,22.79
2019-05-20T07:02:25.893Z,22.75
2019-05-20T07:03:25.848Z,22.90
2019-05-20T07:04:25.813Z,23.16
2019-05-20T07:05:25.795Z,23.39
2019-05-20T07:06:25.789Z,23.63
2019-05-20T07:07:25.777Z,23.80
2019-05-20T07:08:25.841Z,23.98
2019-05-20T07:09:25.764Z,23.66
2019-05-20T07:10:25.751Z,23.54
2019-05-20T07:11:25.738Z,23.53
2019-05-20T07:12:40.203Z,23.25
2019-05-20T07:13:26.709Z,22.91
2019-05-20T07:14:25.705Z,22.61
2019-05-20T07:15:25.690Z,22.52
2019-05-20T07:16:25.684Z,22.42
2019-05-20T07:17:25.670Z,22.52
2019-05-20T07:18:27.553Z,22.70
2019-05-20T07:19:25.705Z,22.67
2019-05-20T07:20:25.704Z,22.86
2019-05-20T07:21:25.663Z,23.20
2019-05-20T07:22:25.620Z,23.40
2019-05-20T07:23:25.634Z,23.25
2019-05-20T07:24:25.600Z,23.33
2019-05-20T07:25:25.636Z,23.39
2019-05-20T07:26:25.570Z,23.46
2019-05-20T07:27:25.562Z,23.57
2019-05-20T07:28:25.547Z,23.58
2019-05-20T07:29:25.591Z,23.84
2019-05-20T07:30:25.534Z,23.84
2019-05-20T07:31:25.517Z,24.31
2019-05-20T07:32:25.505Z,24.40
2019-05-20T07:33:25.496Z,24.46
2019-05-20T07:34:25.645Z,24.61
2019-05-20T07:35:30.652Z,24.81
2019-05-20T07:36:26.494Z,24.78
2019-05-20T07:37:25.505Z,24.52
2019-05-20T07:38:25.440Z,24.42
2019-05-20T07:39:25.461Z,24.42
2019-05-20T07:40:25.427Z,24.50
2019-05-20T07:41:25.414Z,24.81
2019-05-20T07:42:25.403Z,25.20
2019-05-20T07:43:25.400Z,25.32
2019-05-20T07:44:25.398Z,25.40
2019-05-20T07:45:25.377Z,25.05
2019-05-20T07:46:25.364Z,25.18
2019-05-20T07:47:25.366Z,25.09
2019-05-20T07:48:25.368Z,25.32
2019-05-20T07:49:25.921Z,25.39
2019-05-20T07:50:25.318Z,25.25
2019-05-20T07:51:25.311Z,25.02
2019-05-20T07:52:25.293Z,24.71
2019-05-20T07:53:25.281Z,24.45
2019-05-20T07:54:25.275Z,24.45
2019-05-20T07:55:25.269Z,24.49
2019-05-20T07:56:25.266Z,24.55
2019-05-20T07:57:25.379Z,24.78
2019-05-20T07:58:25.234Z,25.14
2019-05-20T07:59:25.218Z,25.20
2019-05-20T08:00:25.209Z,25.28
2019-05-20T08:01:25.196Z,25.82
2019-05-20T08:02:25.198Z,25.82
2019-05-20T08:03:25.186Z,25.79
2019-05-20T08:04:25.234Z,25.79
2019-05-20T08:05:25.155Z,25.91
2019-05-20T08:06:25.225Z,26.02
2019-05-20T08:07:30.176Z,26.05
2019-05-20T08:08:26.145Z,26.07
2019-05-20T08:09:25.204Z,26.23
2019-05-20T08:10:25.102Z,26.15
2019-05-20T08:11:25.091Z,26.15
2019-05-20T08:12:25.081Z,25.91
2019-05-20T08:13:25.079Z,25.51
2019-05-20T08:14:25.062Z,25.42
2019-05-20T08:15:25.059Z,25.58
2019-05-20T08:16:25.045Z,25.28
2019-05-20T08:17:25.033Z,25.38
2019-05-20T08:18:25.025Z,25.47
2019-05-20T08:19:25.017Z,25.52
2019-05-20T08:20:25.007Z,25.82
2019-05-20T08:21:24.998Z,25.95
2019-05-20T08:22:24.985Z,26.26
2019-05-20T08:23:24.978Z,26.23
2019-05-20T08:24:24.968Z,26.28
2019-05-20T08:25:24.963Z,25.92
2019-05-20T08:26:24.970Z,26.25
2019-05-20T08:27:24.944Z,26.52
2019-05-20T08:28:24.925Z,26.60
2019-05-20T08:29:24.917Z,26.50
2019-05-20T08:30:24.909Z,26.65
2019-05-20T08:31:24.912Z,26.92
2019-05-20T08:32:25.069Z,27.24
2019-05-20T08:33:24.876Z,27.34
2019-05-20T08:34:24.864Z,27.32
2019-05-20T08:35:24.857Z,26.97
2019-05-20T08:36:24.862Z,26.51
2019-05-20T08:37:24.834Z,26.73
2019-05-20T08:38:24.825Z,26.87
2019-05-20T08:39:24.812Z,27.27
2019-05-20T08:40:24.815Z,27.34
2019-05-20T08:41:24.817Z,27.50
2019-05-20T08:42:24.783Z,27.69
2019-05-20T08:43:24.773Z,27.79
2019-05-20T08:44:24.762Z,27.79
2019-05-20T08:45:24.752Z,27.94
2019-05-20T08:46:24.763Z,28.19
2019-05-20T08:47:24.734Z,28.48
2019-05-20T08:48:24.732Z,28.62
2019-05-20T08:49:24.715Z,28.68
2019-05-20T08:50:24.703Z,28.56
2019-05-20T08:51:24.698Z,28.30
2019-05-20T08:52:24.686Z,27.77
2019-05-20T08:53:24.682Z,27.22
2019-05-20T08:54:24.700Z,27.44
2019-05-20T08:55:24.671Z,27.41
2019-05-20T08:56:24.650Z,27.79
2019-05-20T08:57:24.636Z,27.97
2019-05-20T08:58:24.688Z,27.82
2019-05-20T08:59:24.617Z,27.44
2019-05-20T09:00:25.093Z,27.43
2019-05-20T09:01:24.606Z,27.62
2019-05-20T09:02:24.624Z,28.04
2019-05-20T09:03:24.583Z,28.06
2019-05-20T09:04:24.575Z,28.30
2019-05-20T09:05:27.837Z,28.39
2019-05-20T09:06:24.555Z,28.00
2019-05-20T09:07:24.552Z,27.88
2019-05-20T09:08:24.551Z,27.81
2019-05-20T09:09:24.646Z,27.79
2019-05-20T09:10:24.517Z,27.88
2019-05-20T09:11:24.505Z,28.15
2019-05-20T09:12:24.602Z,28.76
2019-05-20T09:13:24.490Z,29.18
2019-05-20T09:14:24.486Z,29.19
2019-05-20T09:15:24.469Z,28.39
2019-05-20T09:16:24.462Z,27.82
2019-05-20T09:17:24.458Z,28.21
2019-05-20T09:18:24.441Z,28.49
2019-05-20T09:19:24.438Z,28.39
2019-05-20T09:20:24.653Z,28.95
2019-05-20T09:21:24.413Z,29.09
2019-05-20T09:22:24.402Z,29.70
2019-05-20T09:23:24.421Z,29.90
2019-05-20T09:24:24.391Z,29.49
2019-05-20T09:25:24.377Z,28.71
2019-05-20T09:26:24.375Z,27.96
2019-05-20T09:27:24.397Z,28.11
2019-05-20T09:28:24.348Z,27.94
2019-05-20T09:29:24.339Z,28.19
2019-05-20T09:30:24.329Z,28.39
2019-05-20T09:31:24.318Z,28.54
2019-05-20T09:32:24.308Z,28.54
2019-05-20T09:33:24.313Z,28.19
2019-05-20T09:34:24.343Z,28.33
2019-05-20T09:35:24.280Z,27.78
2019-05-20T09:36:26.048Z,27.50
2019-05-20T09:37:24.260Z,27.59
2019-05-20T09:38:24.255Z,27.88
2019-05-20T09:39:24.240Z,28.02
2019-05-20T09:40:24.389Z,27.79
2019-05-20T09:41:24.224Z,26.97
2019-05-20T09:42:24.210Z,27.18
2019-05-20T09:43:24.200Z,27.81
2019-05-20T09:44:24.192Z,28.30
2019-05-20T09:45:24.190Z,28.54
2019-05-20T09:46:24.199Z,28.98
2019-05-20T09:47:24.164Z,28.77
2019-05-20T09:48:25.250Z,28.31
2019-05-20T09:49:24.213Z,28.27
2019-05-20T09:50:24.133Z,28.39
2019-05-20T09:51:24.128Z,28.54
2019-05-20T09:52:24.163Z,28.46
2019-05-20T09:53:24.125Z,28.64
2019-05-20T09:54:24.095Z,28.43
2019-05-20T09:55:24.113Z,28.36
2019-05-20T09:56:24.073Z,28.40
2019-05-20T09:57:24.063Z,28.59
2019-05-20T09:58:24.056Z,29.00
2019-05-20T09:59:24.067Z,29.63
2019-05-20T10:00:24.034Z,30.00
2019-05-20T10:01:24.029Z,30.67
2019-05-20T10:02:33.735Z,29.43
2019-05-20T10:03:25.004Z,29.15
2019-05-20T10:04:24.003Z,29.27
2019-05-20T10:05:23.991Z,29.80
2019-05-20T10:06:23.982Z,29.83
2019-05-20T10:07:23.977Z,29.89
2019-05-20T10:08:37.418Z,29.89
2019-05-20T10:09:24.949Z,29.76
2019-05-20T10:10:23.945Z,29.43
2019-05-20T10:11:23.931Z,29.46
2019-05-20T10:12:23.927Z,29.79
2019-05-20T10:13:23.913Z,29.57
2019-05-20T10:14:23.906Z,29.36
2019-05-20T10:15:23.900Z,29.37
2019-05-20T10:16:23.888Z,28.66
2019-05-20T10:17:23.880Z,27.97
2019-05-20T10:18:36.716Z,27.43
2019-05-20T10:19:24.853Z,26.87
2019-05-20T10:20:23.856Z,27.63
2019-05-20T10:21:23.833Z,28.30
2019-05-20T10:22:23.827Z,27.82
2019-05-20T10:23:23.815Z,27.66
2019-05-20T10:24:23.805Z,28.07
2019-05-20T10:25:23.793Z,28.33
2019-05-20T10:26:23.789Z,28.54
2019-05-20T10:27:23.774Z,28.96
2019-05-20T10:28:23.763Z,29.55
2019-05-20T10:29:23.755Z,30.08
2019-05-20T10:30:23.748Z,30.73
2019-05-20T10:31:23.755Z,30.94
2019-05-20T10:32:23.727Z,30.86
2019-05-20T10:33:23.714Z,30.04
2019-05-20T10:34:23.706Z,29.21
2019-05-20T10:35:23.693Z,29.23
2019-05-20T10:36:23.702Z,29.24
2019-05-20T10:37:23.673Z,29.36
2019-05-20T10:38:23.695Z,29.23
2019-05-20T10:39:23.655Z,29.04
2019-05-20T10:40:23.642Z,29.31
2019-05-20T10:41:23.687Z,29.97
2019-05-20T10:42:23.625Z,30.45
2019-05-20T10:43:23.610Z,30.29
2019-05-20T10:44:23.603Z,30.04
2019-05-20T10:45:23.615Z,29.90
2019-05-20T10:46:23.596Z,29.33
2019-05-20T10:47:23.568Z,29.19
2019-05-20T10:48:23.560Z,29.18
2019-05-20T10:49:23.551Z,29.12
2019-05-20T10:50:23.542Z,28.81
2019-05-20T10:51:23.531Z,28.33
2019-05-20T10:52:23.526Z,27.93
2019-05-20T10:53:23.510Z,27.44
2019-05-20T10:54:23.502Z,27.32
2019-05-20T10:55:23.572Z,27.06
2019-05-20T10:56:23.480Z,26.57
2019-05-20T10:57:23.469Z,26.63
2019-05-20T10:58:23.462Z,26.51
2019-05-20T10:59:23.447Z,26.30
2019-05-20T11:00:23.445Z,26.32
2019-05-20T11:01:23.435Z,26.30
2019-05-20T11:02:23.419Z,25.77
2019-05-20T11:03:23.410Z,25.85
2019-05-20T11:04:23.403Z,25.75
2019-05-20T11:05:23.424Z,25.75
2019-05-20T11:06:23.376Z,25.50
2019-05-20T11:07:23.366Z,25.67
2019-05-20T11:08:23.353Z,25.80
2019-05-20T11:09:23.344Z,25.92
2019-05-20T11:10:23.332Z,25.97
2019-05-20T11:11:23.321Z,25.82
2019-05-20T11:12:23.353Z,25.69
2019-05-20T11:13:23.305Z,25.46
2019-05-20T11:14:23.336Z,25.52
2019-05-20T11:15:23.281Z,25.43
2019-05-20T11:16:23.269Z,25.61
2019-05-20T11:17:23.258Z,25.58
2019-05-20T11:18:23.254Z,25.54
2019-05-20T11:19:23.238Z,25.39
2019-05-20T11:20:23.226Z,25.33
2019-05-20T11:21:23.217Z,25.42
2019-05-20T11:22:23.205Z,25.30
2019-05-20T11:23:23.196Z,25.32
2019-05-20T11:24:23.182Z,25.13
2019-05-20T11:25:23.184Z,25.08
2019-05-20T11:26:23.163Z,24.98
2019-05-20T11:27:23.153Z,24.98
2019-05-20T11:28:23.139Z,24.93
2019-05-20T11:29:23.131Z,25.05
2019-05-20T11:30:23.120Z,25.09
2019-05-20T11:31:23.113Z,25.25
2019-05-20T11:32:23.126Z,25.42
2019-05-20T11:33:23.098Z,25.45
2019-05-20T11:34:23.084Z,25.65
2019-05-20T11:35:23.067Z,25.80
2019-05-20T11:36:23.057Z,25.85
2019-05-20T11:37:23.048Z,25.88
2019-05-20T11:38:23.031Z,26.09
2019-05-20T11:39:33.402Z,26.23
2019-05-20T11:40:24.012Z,26.33
2019-05-20T11:41:51.310Z,26.30
2019-05-20T11:42:23.992Z,26.06
2019-05-20T11:43:22.981Z,25.95
2019-05-20T11:44:22.967Z,25.90
2019-05-20T11:45:22.956Z,25.88
2019-05-20T11:46:22.946Z,25.90
2019-05-20T11:47:22.945Z,25.88
2019-05-20T11:48:22.925Z,25.88
2019-05-20T11:49:22.916Z,25.98
2019-05-20T11:50:22.905Z,25.82
2019-05-20T11:51:22.893Z,25.80
2019-05-20T11:52:22.884Z,25.62
2019-05-20T11:53:22.871Z,25.65
2019-05-20T11:54:22.866Z,25.79
2019-05-20T11:55:22.864Z,25.83
2019-05-20T11:56:22.845Z,25.90
2019-05-20T11:57:22.844Z,25.83
2019-05-20T11:58:22.819Z,25.87
2019-05-20T11:59:22.809Z,26.06
2019-05-20T12:00:22.797Z,26.12
2019-05-20T12:01:22.785Z,26.29
2019-05-20T12:02:22.784Z,26.18
2019-05-20T12:03:22.770Z,25.95
2019-05-20T12:04:22.754Z,25.90
2019-05-20T12:05:22.820Z,25.85
2019-05-20T12:06:22.734Z,25.61
2019-05-20T12:07:22.723Z,25.67
2019-05-20T12:08:22.711Z,25.77
2019-05-20T12:09:22.703Z,25.69
2019-05-20T12:10:22.689Z,25.61
2019-05-20T12:11:22.681Z,25.65
2019-05-20T12:12:22.670Z,25.57
2019-05-20T12:13:22.659Z,25.45
2019-05-20T12:14:22.646Z,25.27
2019-05-20T12:15:22.639Z,25.32
2019-05-20T12:16:22.625Z,25.30
2019-05-20T12:17:22.630Z,25.42
2019-05-20T12:18:22.606Z,25.35
2019-05-20T12:19:22.601Z,25.36
2019-05-20T12:20:22.580Z,25.28
2019-05-20T12:21:22.568Z,25.35
2019-05-20T12:22:22.561Z,25.40
2019-05-20T12:23:22.547Z,25.32
2019-05-20T12:24:22.536Z,25.57
2019-05-20T12:25:22.526Z,25.57
2019-05-20T12:26:22.931Z,25.51
2019-05-20T12:27:22.502Z,25.40
2019-05-20T12:28:22.495Z,25.51
2019-05-20T12:29:22.483Z,25.52
2019-05-20T12:30:22.480Z,25.43
2019-05-20T12:31:22.461Z,25.51
2019-05-20T12:32:22.456Z,25.65
2019-05-20T12:33:22.441Z,25.57
2019-05-20T12:34:22.447Z,25.46
2019-05-20T12:35:22.421Z,25.62
2019-05-20T12:36:22.405Z,25.76
2019-05-20T12:37:22.399Z,25.77
2019-05-20T12:38:22.387Z,25.90
2019-05-20T12:39:22.379Z,25.73
2019-05-20T12:40:22.363Z,25.82
2019-05-20T12:41:22.379Z,25.79
2019-05-20T12:42:22.341Z,25.90
2019-05-20T12:43:22.338Z,25.88
2019-05-20T12:44:22.319Z,25.80
2019-05-20T12:45:22.311Z,25.97
2019-05-20T12:46:22.300Z,26.32
2019-05-20T12:47:22.290Z,26.29
2019-05-20T12:48:22.317Z,26.36
2019-05-20T12:49:22.395Z,26.51
2019-05-20T12:50:22.256Z,26.94
2019-05-20T12:51:22.250Z,26.88
2019-05-20T12:52:22.238Z,26.89